Time;durP1;ratioP1;P1;durP2;ratioP2;P2;SDS_P1;SDS_P2;PMS_P1;PMS_P2;Temp;Humidity;BMP_temperature;BMP_pressure;BME280_temperature;BME280_humidity;BME280_pressure;Samples;Min_cycle;Max_cycle;Signal;HPM_P1;HPM_P2
2023/11/06 00:02:05;;;;;;;0.35;0.35;;;;;;;13.04;100.00;98038.13;5008119;28;20223;-70
2023/11/06 00:04:35;;;;;;;1.10;0.20;;;;;;;13.00;100.00;98042.88;4971107;28;20038;-70
2023/11/06 00:07:00;;;;;;;0.85;0.47;;;;;;;13.23;99.98;98039.81;5007669;28;20092;-70
2023/11/06 00:09:26;;;;;;;0.20;0.20;;;;;;;13.14;100.00;98054.00;4993210;28;20486;-70
2023/11/06 00:11:51;;;;;;;0.22;0.20;;;;;;;13.20;99.68;98054.22;4993250;28;20033;-70
2023/11/06 00:14:17;;;;;;;0.10;0.10;;;;;;;13.18;100.00;98056.59;5009589;28;20144;-70
2023/11/06 00:16:43;;;;;;;0.40;0.20;;;;;;;13.21;100.00;98066.53;5008298;28;20069;-71
2023/11/06 00:19:08;;;;;;;0.20;0.20;;;;;;;13.01;100.00;98071.38;5006298;28;20034;-70
2023/11/06 00:21:35;;;;;;;3.13;0.50;;;;;;;12.91;100.00;98080.59;4987545;28;20046;-70
2023/11/06 00:24:01;;;;;;;0.50;0.30;;;;;;;13.03;100.00;98083.31;5005438;28;20026;-70
2023/11/06 00:26:26;;;;;;;1.85;0.80;;;;;;;12.94;100.00;98093.22;5007920;28;20044;-70
2023/11/06 00:28:56;;;;;;;0.57;0.47;;;;;;;12.91;100.00;98099.50;4974243;28;20470;-70
2023/11/06 00:31:22;;;;;;;1.10;1.05;;;;;;;12.98;100.00;98107.38;4989894;28;20037;-70
2023/11/06 00:33:52;;;;;;;3.13;0.70;;;;;;;12.93;100.00;98107.94;4985520;28;20026;-71
2023/11/06 00:36:23;;;;;;;1.40;0.70;;;;;;;12.81;100.00;98106.00;5011850;28;20030;-70
2023/11/06 00:38:49;;;;;;;3.65;0.90;;;;;;;13.07;100.00;98112.91;4998481;28;20072;-70
2023/11/06 00:41:15;;;;;;;1.27;0.70;;;;;;;13.22;99.71;98106.63;5010357;28;20049;-70
2023/11/06 00:43:42;;;;;;;5.47;0.68;;;;;;;13.13;98.76;98116.59;5005329;28;20112;-71
2023/11/06 00:46:08;;;;;;;1.60;0.82;;;;;;;12.99;100.00;98125.88;5009178;28;20603;-70
2023/11/06 00:48:34;;;;;;;1.75;1.00;;;;;;;12.66;100.00;98117.22;5008757;28;20549;-70
2023/11/06 00:51:00;;;;;;;3.38;0.65;;;;;;;12.55;100.00;98137.59;5010867;28;20050;-71
2023/11/06 00:53:26;;;;;;;2.15;1.95;;;;;;;12.74;100.00;98147.47;5009210;28;20537;-70
2023/11/06 00:55:52;;;;;;;0.85;0.63;;;;;;;12.81;100.00;98149.19;4994149;28;20034;-70
2023/11/06 00:58:18;;;;;;;1.00;0.68;;;;;;;12.95;99.09;98154.19;4995363;28;20022;-70
2023/11/06 01:00:44;;;;;;;2.58;1.13;;;;;;;13.03;98.32;98150.84;5014715;28;20070;-70
2023/11/06 01:03:12;;;;;;;6.43;1.15;;;;;;;12.81;99.18;98157.31;4988428;28;20397;-70
2023/11/06 01:05:38;;;;;;;2.22;1.70;;;;;;;12.69;99.95;98172.31;5011408;28;20045;-70
2023/11/06 01:08:05;;;;;;;4.57;1.05;;;;;;;12.74;99.79;98176.44;5010829;28;20034;-70
2023/11/06 01:10:36;;;;;;;1.27;0.80;;;;;;;12.74;98.11;98162.94;4993040;28;20065;-70
2023/11/06 01:13:03;;;;;;;3.00;1.05;;;;;;;12.78;97.58;98185.94;5007363;28;20081;-70
2023/11/06 01:15:29;;;;;;;1.30;0.85;;;;;;;12.90;97.83;98192.53;5008993;28;20151;-70
2023/11/06 01:17:55;;;;;;;2.38;0.82;;;;;;;12.89;96.61;98205.28;4991105;28;20049;-70
2023/11/06 01:20:21;;;;;;;1.60;0.90;;;;;;;12.95;96.34;98211.66;5008453;28;20042;-70
2023/11/06 01:22:47;;;;;;;3.28;0.70;;;;;;;12.62;98.00;98208.34;4996194;28;20048;-70
2023/11/06 01:25:13;;;;;;;0.85;0.65;;;;;;;12.83;96.59;98207.03;5007090;28;20057;-70
2023/11/06 01:27:41;;;;;;;2.40;1.00;;;;;;;12.71;95.62;98215.84;5007839;28;20473;-69
2023/11/06 01:30:07;;;;;;;1.58;0.80;;;;;;;12.82;96.00;98226.31;4994873;28;20390;-70
2023/11/06 01:32:33;;;;;;;1.75;0.70;;;;;;;12.72;96.17;98224.72;5011644;28;20098;-70
2023/11/06 01:34:59;;;;;;;1.50;0.90;;;;;;;12.92;95.50;98234.16;4995551;28;20080;-70
2023/11/06 01:37:26;;;;;;;8.40;1.10;;;;;;;12.78;96.20;98236.47;5011699;28;20490;-70
2023/11/06 01:39:51;;;;;;;5.30;1.00;;;;;;;12.88;95.14;98240.81;4992492;28;20106;-70
2023/11/06 01:42:20;;;;;;;1.15;1.00;;;;;;;12.99;94.89;98241.31;4992236;28;20030;-70
2023/11/06 01:44:45;;;;;;;1.13;0.70;;;;;;;12.97;94.45;98251.78;5006045;28;20046;-70
2023/11/06 01:47:14;;;;;;;1.13;1.02;;;;;;;13.11;93.48;98252.16;5007571;28;20445;-70
2023/11/06 01:49:41;;;;;;;1.63;1.10;;;;;;;13.13;93.69;98255.16;4977849;28;20057;-69
2023/11/06 01:52:10;;;;;;;1.48;0.95;;;;;;;12.99;93.37;98260.94;5002386;28;20165;-70
2023/11/06 01:54:38;;;;;;;1.67;0.95;;;;;;;13.01;93.42;98272.09;4990428;28;20037;-70
2023/11/06 01:57:05;;;;;;;1.10;0.98;;;;;;;12.97;93.51;98268.00;5001506;28;20461;-69
2023/11/06 01:59:30;;;;;;;1.65;1.20;;;;;;;13.17;92.13;98268.56;4991972;28;20048;-70
2023/11/06 02:02:04;;;;;;;2.85;1.27;;;;;;;12.98;92.51;98283.00;4993187;28;20033;-69
2023/11/06 02:04:30;;;;;;;2.92;1.35;;;;;;;12.90;93.78;98289.78;4992640;28;20120;-70
2023/11/06 02:06:56;;;;;;;3.15;1.02;;;;;;;12.91;93.83;98291.31;4993948;28;20029;-70
2023/11/06 02:09:21;;;;;;;4.72;1.38;;;;;;;12.95;92.76;98295.41;4994865;28;20495;-69
2023/11/06 02:11:47;;;;;;;2.78;1.10;;;;;;;12.61;93.90;98287.09;4975323;28;20049;-70
2023/11/06 02:14:13;;;;;;;2.70;1.50;;;;;;;12.67;94.22;98298.91;4994213;28;20034;-70
2023/11/06 02:16:38;;;;;;;1.23;1.10;;;;;;;12.80;93.51;98301.63;4994735;28;20037;-69
2023/11/06 02:19:05;;;;;;;2.35;1.35;;;;;;;12.88;92.71;98314.53;4987065;28;20052;-70
2023/11/06 02:21:32;;;;;;;2.78;1.60;;;;;;;12.80;93.05;98317.84;4992211;28;20045;-69
2023/11/06 02:23:58;;;;;;;1.40;1.25;;;;;;;12.90;92.28;98314.09;5009068;28;20568;-70
2023/11/06 02:26:23;;;;;;;6.70;1.30;;;;;;;12.88;92.61;98319.94;5009520;28;20053;-70
2023/11/06 02:28:51;;;;;;;1.70;1.50;;;;;;;12.91;92.10;98321.03;5007825;28;20406;-70
2023/11/06 02:31:17;;;;;;;1.50;1.40;;;;;;;12.95;91.64;98332.50;4991937;28;20018;-69
2023/11/06 02:33:42;;;;;;;4.97;1.50;;;;;;;12.77;92.83;98329.50;4975615;28;20038;-70
2023/11/06 02:36:09;;;;;;;7.13;1.38;;;;;;;12.85;92.38;98339.69;4991315;28;20405;-69
2023/11/06 02:38:35;;;;;;;2.50;1.40;;;;;;;12.82;92.96;98337.06;5004820;28;20048;-70
2023/11/06 02:41:01;;;;;;;5.38;1.15;;;;;;;12.99;90.96;98341.25;4994090;28;20934;-70
2023/11/06 02:43:26;;;;;;;10.60;1.55;;;;;;;12.45;93.14;98344.56;5009340;28;20061;-69
2023/11/06 02:45:52;;;;;;;2.53;1.25;;;;;;;12.60;92.52;98348.44;5010334;28;20065;-69
2023/11/06 02:48:18;;;;;;;1.63;1.30;;;;;;;12.65;91.90;98353.34;5009297;28;20509;-69
2023/11/06 02:50:44;;;;;;;2.65;1.45;;;;;;;12.59;93.11;98365.06;5010464;28;20022;-69
2023/11/06 02:53:10;;;;;;;4.82;1.52;;;;;;;12.73;91.70;98370.09;4992996;28;20037;-69
2023/11/06 02:55:36;;;;;;;2.60;1.40;;;;;;;12.75;91.96;98386.66;4991404;28;20068;-69
2023/11/06 02:58:03;;;;;;;4.95;1.73;;;;;;;12.57;92.89;98375.53;4992376;28;20057;-69
2023/11/06 03:00:28;;;;;;;2.08;1.30;;;;;;;12.77;91.52;98380.81;5004242;28;20021;-69
2023/11/06 03:02:55;;;;;;;3.67;1.80;;;;;;;12.74;91.13;98397.88;5009357;28;20026;-69
2023/11/06 03:05:22;;;;;;;2.22;1.65;;;;;;;12.86;90.36;98392.53;5004694;28;20041;-69
2023/11/06 03:07:47;;;;;;;6.05;1.70;;;;;;;12.81;90.89;98392.28;4993341;28;20092;-69
2023/11/06 03:10:14;;;;;;;4.32;1.70;;;;;;;12.86;90.56;98402.56;4995360;28;20026;-69
2023/11/06 03:12:41;;;;;;;2.42;1.67;;;;;;;12.86;90.60;98397.94;4990956;28;20109;-69
2023/11/06 03:15:07;;;;;;;2.22;1.42;;;;;;;12.75;91.24;98400.16;4994751;28;20080;-69
2023/11/06 03:17:33;;;;;;;5.32;1.75;;;;;;;12.91;90.45;98412.88;4989841;28;20049;-70
2023/11/06 03:19:59;;;;;;;2.05;1.45;;;;;;;12.92;90.39;98419.78;4991853;28;20022;-69
2023/11/06 03:22:25;;;;;;;2.83;1.92;;;;;;;12.99;90.41;98409.53;5004090;28;20497;-69
2023/11/06 03:24:50;;;;;;;1.70;1.42;;;;;;;12.92;90.57;98430.59;4990749;28;20122;-70
2023/11/06 03:27:16;;;;;;;3.95;1.52;;;;;;;12.94;90.47;98428.22;4989359;28;20037;-70
2023/11/06 03:29:41;;;;;;;5.07;1.88;;;;;;;12.92;90.76;98442.16;4989124;28;20548;-69
2023/11/06 03:32:07;;;;;;;2.67;1.83;;;;;;;12.96;89.96;98432.03;4992414;28;20044;-69
2023/11/06 03:34:33;;;;;;;2.53;1.30;;;;;;;12.73;90.16;98442.25;4973290;28;20065;-69
2023/11/06 03:36:59;;;;;;;4.07;1.42;;;;;;;12.72;90.66;98449.59;4994048;28;20026;-69
2023/11/06 03:39:24;;;;;;;2.10;1.45;;;;;;;12.64;91.94;98443.63;5004795;28;20030;-70
2023/11/06 03:41:50;;;;;;;2.08;1.25;;;;;;;12.81;91.20;98451.72;4994083;28;20093;-70
2023/11/06 03:44:15;;;;;;;2.33;1.30;;;;;;;12.74;90.66;98465.41;5007354;28;20242;-69
2023/11/06 03:46:41;;;;;;;6.13;2.00;;;;;;;12.85;90.00;98469.38;5006871;28;20087;-70
2023/11/06 03:49:07;;;;;;;2.63;1.55;;;;;;;12.82;89.84;98462.09;4989800;28;20026;-69
2023/11/06 03:51:32;;;;;;;2.17;1.40;;;;;;;12.70;90.08;98468.94;5007516;28;20056;-70
2023/11/06 03:53:58;;;;;;;3.40;1.30;;;;;;;12.64;90.43;98473.31;5005362;28;20056;-70
2023/11/06 03:56:23;;;;;;;4.18;1.20;;;;;;;12.62;90.81;98472.97;5003550;28;20044;-70
2023/11/06 03:58:48;;;;;;;1.45;1.20;;;;;;;12.56;91.17;98474.66;4986884;28;20022;-69
2023/11/06 04:01:14;;;;;;;2.20;1.45;;;;;;;12.54;90.84;98482.41;5007828;28;20091;-69
2023/11/06 04:03:40;;;;;;;1.63;0.98;;;;;;;12.53;90.97;98490.94;5010261;28;20502;-69
2023/11/06 04:06:06;;;;;;;1.20;1.08;;;;;;;12.55;90.33;98486.66;4993910;28;20434;-69
2023/11/06 04:08:31;;;;;;;1.77;1.20;;;;;;;12.46;90.41;98486.47;4993671;28;20032;-69
2023/11/06 04:10:57;;;;;;;3.03;1.70;;;;;;;12.45;90.69;98482.25;5013240;28;20030;-69
2023/11/06 04:13:22;;;;;;;4.32;1.08;;;;;;;12.52;90.56;98484.78;5013298;28;20021;-69
2023/11/06 04:15:48;;;;;;;5.38;1.33;;;;;;;12.47;91.08;98498.78;5010568;28;20034;-69
2023/11/06 04:18:13;;;;;;;6.40;1.17;;;;;;;12.52;91.19;98492.13;5015489;28;20057;-69
2023/11/06 04:20:41;;;;;;;5.90;1.13;;;;;;;12.56;90.68;98495.53;4993107;28;20049;-70
2023/11/06 04:23:10;;;;;;;1.05;0.93;;;;;;;12.19;91.34;98507.53;4994842;28;20033;-69
2023/11/06 04:25:37;;;;;;;3.10;1.00;;;;;;;12.35;91.31;98515.63;4988761;28;20565;-69
2023/11/06 04:28:04;;;;;;;2.63;1.30;;;;;;;12.33;90.66;98515.28;4997390;28;20030;-69
2023/11/06 04:30:30;;;;;;;1.70;1.20;;;;;;;12.34;91.07;98529.56;5004089;28;20385;-69
2023/11/06 04:32:56;;;;;;;2.20;1.30;;;;;;;12.27;91.78;98527.75;5000101;28;20432;-69
2023/11/06 04:35:21;;;;;;;1.30;1.20;;;;;;;12.26;91.20;98526.25;4998198;28;20030;-69
2023/11/06 04:37:47;;;;;;;2.25;1.02;;;;;;;12.02;91.95;98535.59;4995852;28;20087;-69
2023/11/06 04:40:12;;;;;;;2.15;1.27;;;;;;;12.18;91.81;98535.66;5014867;28;20060;-69
2023/11/06 04:42:40;;;;;;;3.65;1.48;;;;;;;12.21;91.51;98539.47;5014243;28;20030;-69
2023/11/06 04:45:08;;;;;;;2.08;1.00;;;;;;;12.08;92.10;98544.72;4983211;28;20038;-69
2023/11/06 04:47:35;;;;;;;4.07;1.25;;;;;;;12.15;91.77;98541.13;5009146;28;20049;-69
2023/11/06 04:50:01;;;;;;;2.58;1.70;;;;;;;12.28;91.16;98552.81;5016895;28;20029;-69
2023/11/06 04:52:26;;;;;;;1.80;1.35;;;;;;;12.16;91.14;98556.91;4995129;28;20022;-69
2023/11/06 04:54:52;;;;;;;4.47;2.17;;;;;;;12.12;92.11;98556.22;4995221;28;20480;-69
2023/11/06 04:57:17;;;;;;;1.98;1.35;;;;;;;12.29;91.23;98551.66;5012570;28;20538;-69
2023/11/06 04:59:43;;;;;;;2.47;1.73;;;;;;;12.23;91.96;98551.34;5013924;28;20061;-70
2023/11/06 05:02:08;;;;;;;5.55;1.77;;;;;;;12.33;90.87;98563.88;5014097;28;20029;-69
2023/11/06 05:04:33;;;;;;;2.55;1.85;;;;;;;12.27;91.37;98575.59;5009400;28;20412;-69
2023/11/06 05:06:59;;;;;;;4.30;2.17;;;;;;;12.16;91.54;98562.31;5001341;28;20044;-69
2023/11/06 05:09:24;;;;;;;2.67;1.85;;;;;;;12.06;92.69;98584.84;4995749;28;20036;-69
2023/11/06 05:11:50;;;;;;;2.22;1.42;;;;;;;12.18;91.61;98584.25;5007140;28;20545;-69
2023/11/06 05:14:15;;;;;;;2.65;1.75;;;;;;;12.15;91.59;98589.72;4996878;28;20117;-69
2023/11/06 05:16:40;;;;;;;2.88;1.70;;;;;;;12.17;91.43;98593.53;4990792;28;20126;-69
2023/11/06 05:19:06;;;;;;;3.05;1.60;;;;;;;12.16;91.26;98602.78;4997849;28;20165;-69
2023/11/06 05:21:31;;;;;;;2.78;1.73;;;;;;;12.29;91.18;98594.84;5001224;28;20508;-69
2023/11/06 05:23:57;;;;;;;3.33;2.35;;;;;;;12.15;91.64;98595.88;5010479;28;20709;-69
2023/11/06 05:26:22;;;;;;;3.22;1.80;;;;;;;12.08;92.38;98611.44;5002223;28;20083;-69
2023/11/06 05:28:48;;;;;;;4.22;2.10;;;;;;;12.10;92.06;98614.50;4978461;28;20544;-69
2023/11/06 05:31:14;;;;;;;3.97;1.95;;;;;;;12.03;92.63;98615.38;4995418;28;20030;-69
2023/11/06 05:33:40;;;;;;;6.40;2.28;;;;;;;12.21;91.57;98615.81;4994612;28;20037;-69
2023/11/06 05:36:09;;;;;;;3.83;2.72;;;;;;;12.21;91.54;98625.84;4994590;28;20422;-69
2023/11/06 05:38:35;;;;;;;3.78;1.50;;;;;;;12.22;91.34;98625.41;5007712;28;20034;-69
2023/11/06 05:41:00;;;;;;;3.40;1.90;;;;;;;12.08;92.78;98630.34;5008176;28;20052;-68
2023/11/06 05:43:25;;;;;;;3.28;2.33;;;;;;;12.10;92.17;98634.13;5011934;28;20072;-69
2023/11/06 05:45:51;;;;;;;7.32;2.50;;;;;;;12.10;92.26;98642.22;4977503;28;20137;-69
2023/11/06 05:48:16;;;;;;;3.38;2.28;;;;;;;12.18;92.55;98637.44;4986179;28;20699;-69
2023/11/06 05:50:42;;;;;;;6.80;2.28;;;;;;;12.23;92.48;98642.38;4997842;28;20127;-69
2023/11/06 05:53:07;;;;;;;4.43;2.28;;;;;;;12.29;91.57;98651.50;5009504;28;20057;-69
2023/11/06 05:55:33;;;;;;;7.88;2.17;;;;;;;12.20;91.89;98652.03;4988179;28;20140;-69
2023/11/06 05:57:58;;;;;;;2.92;1.80;;;;;;;12.16;92.35;98656.75;4997886;28;20037;-69
2023/11/06 06:00:24;;;;;;;4.32;1.85;;;;;;;12.17;92.07;98652.13;5010150;28;20064;-69
2023/11/06 06:02:49;;;;;;;2.70;1.67;;;;;;;12.17;91.84;98652.88;5002911;28;20041;-69
2023/11/06 06:05:15;;;;;;;2.30;2.00;;;;;;;12.15;91.85;98660.63;4987768;28;20448;-69
2023/11/06 06:07:41;;;;;;;8.38;2.40;;;;;;;12.19;91.86;98674.81;4988966;28;20394;-69
2023/11/06 06:10:07;;;;;;;3.58;2.40;;;;;;;12.18;92.05;98673.28;4986724;28;20045;-69
2023/11/06 06:12:33;;;;;;;3.58;1.95;;;;;;;12.08;92.33;98679.63;5005018;28;20052;-69
2023/11/06 06:14:59;;;;;;;4.55;2.20;;;;;;;12.20;92.17;98689.81;5003642;28;20025;-69
2023/11/06 06:17:25;;;;;;;3.05;1.70;;;;;;;12.22;91.65;98692.88;4979641;28;20031;-69
2023/11/06 06:19:51;;;;;;;4.28;2.10;;;;;;;12.08;92.53;98700.47;4985926;28;20445;-69
2023/11/06 06:22:16;;;;;;;4.22;2.17;;;;;;;12.03;92.76;98696.31;4986223;28;20512;-69
2023/11/06 06:24:42;;;;;;;3.72;2.08;;;;;;;12.02;92.58;98702.13;4971834;28;20034;-69
2023/11/06 06:27:08;;;;;;;5.35;2.58;;;;;;;12.17;92.52;98727.69;5007024;28;20064;-69
2023/11/06 06:29:34;;;;;;;3.22;1.88;;;;;;;12.23;91.91;98721.38;5004515;28;20080;-68
2023/11/06 06:31:59;;;;;;;3.15;1.70;;;;;;;12.26;91.81;98730.59;5006431;28;20293;-69
2023/11/06 06:34:25;;;;;;;2.33;1.70;;;;;;;12.02;93.08;98735.25;4996803;28;20038;-69
2023/11/06 06:36:50;;;;;;;3.65;2.05;;;;;;;12.14;93.24;98740.03;4992250;28;20071;-68
2023/11/06 06:39:16;;;;;;;5.03;1.70;;;;;;;12.24;92.96;98741.81;5001429;28;20387;-68
2023/11/06 06:41:41;;;;;;;2.63;1.85;;;;;;;12.24;92.74;98749.91;5013445;28;20401;-69
2023/11/06 06:44:07;;;;;;;5.32;2.22;;;;;;;12.36;93.05;98748.53;4973109;28;20044;-69
2023/11/06 06:46:32;;;;;;;3.85;1.83;;;;;;;12.16;92.69;98751.19;4973894;28;20037;-69
2023/11/06 06:48:58;;;;;;;3.88;1.90;;;;;;;12.25;93.15;98764.91;5010034;28;20045;-69
2023/11/06 06:51:24;;;;;;;3.80;2.08;;;;;;;12.42;92.11;98761.16;5007981;28;20026;-69
2023/11/06 06:53:51;;;;;;;5.00;2.42;;;;;;;12.50;91.47;98780.69;4993503;28;20033;-68
2023/11/06 06:56:16;;;;;;;3.78;2.45;;;;;;;12.56;91.48;98771.66;5006422;28;20108;-68
2023/11/06 06:58:42;;;;;;;5.82;1.88;;;;;;;12.50;91.42;98772.59;5010302;28;20030;-69
2023/11/06 07:01:08;;;;;;;5.90;2.13;;;;;;;12.59;91.17;98775.50;5002685;28;20033;-68
2023/11/06 07:03:36;;;;;;;3.08;2.00;;;;;;;12.45;92.15;98786.53;4995855;28;20026;-69
2023/11/06 07:06:04;;;;;;;5.80;1.92;;;;;;;12.54;91.67;98784.09;5011210;28;20079;-69
2023/11/06 07:08:30;;;;;;;6.35;2.38;;;;;;;12.55;91.74;98791.75;5002840;28;20185;-69
2023/11/06 07:10:58;;;;;;;3.42;1.75;;;;;;;12.63;91.44;98792.41;4992341;28;20037;-69
2023/11/06 07:13:24;;;;;;;5.97;2.20;;;;;;;12.66;90.70;98800.44;4980507;28;20030;-69
2023/11/06 07:15:49;;;;;;;3.17;2.10;;;;;;;12.40;92.60;98801.28;4990839;28;20075;-69
2023/11/06 07:18:15;;;;;;;9.93;2.50;;;;;;;12.61;91.32;98816.34;5004253;28;20046;-69
2023/11/06 07:20:40;;;;;;;3.83;1.90;;;;;;;12.65;91.52;98811.66;5007256;28;20053;-69
2023/11/06 07:23:06;;;;;;;3.28;2.20;;;;;;;12.69;90.66;98801.53;5003766;28;20033;-69
2023/11/06 07:25:31;;;;;;;3.28;2.00;;;;;;;12.61;90.47;98811.72;5009878;28;20065;-69
2023/11/06 07:27:57;;;;;;;6.10;2.30;;;;;;;12.81;89.95;98806.34;5005012;28;20022;-69
2023/11/06 07:30:23;;;;;;;4.85;2.40;;;;;;;12.98;89.18;98804.47;4986878;28;20026;-68
2023/11/06 07:32:49;;;;;;;8.18;2.72;;;;;;;12.89;89.10;98810.41;4981457;28;20052;-69
2023/11/06 07:35:14;;;;;;;4.25;2.08;;;;;;;12.81;89.11;98813.66;5009405;28;20520;-69
2023/11/06 07:37:40;;;;;;;4.88;2.15;;;;;;;12.84;89.61;98819.00;5010938;28;20025;-69
2023/11/06 07:40:14;;;;;;;2.95;2.10;;;;;;;12.85;89.62;98825.94;4994595;28;20034;-68
2023/11/06 07:42:40;;;;;;;4.10;2.17;;;;;;;12.75;90.19;98835.00;4990256;28;20026;-69
2023/11/06 07:45:07;;;;;;;3.35;1.92;;;;;;;12.96;89.74;98831.13;5010208;28;20025;-69
2023/11/06 07:47:34;;;;;;;6.20;1.98;;;;;;;12.98;89.56;98840.34;4990595;28;20119;-69
2023/11/06 07:49:59;;;;;;;6.70;2.50;;;;;;;12.98;89.62;98842.28;5010988;28;20156;-69
2023/11/06 07:52:25;;;;;;;3.28;2.20;;;;;;;13.06;89.29;98841.78;4992468;28;20524;-69
2023/11/06 07:54:50;;;;;;;2.97;1.95;;;;;;;12.96;90.07;98852.75;5006133;28;20053;-69
2023/11/06 07:57:17;;;;;;;7.15;2.70;;;;;;;13.11;89.10;98859.44;5003856;28;20394;-69
2023/11/06 07:59:43;;;;;;;3.67;1.77;;;;;;;13.20;88.70;98856.97;5013618;28;20398;-68
2023/11/06 08:02:10;;;;;;;3.38;1.90;;;;;;;13.07;89.31;98858.75;5008476;28;20034;-69
2023/11/06 08:04:43;;;;;;;2.15;1.80;;;;;;;13.16;89.06;98867.06;5006120;28;20029;-69
2023/11/06 08:07:10;;;;;;;2.40;1.63;;;;;;;13.13;89.49;98876.00;5006185;28;20026;-69
2023/11/06 08:09:36;;;;;;;6.18;1.63;;;;;;;13.22;88.84;98873.53;5009726;28;20053;-69
2023/11/06 08:12:03;;;;;;;3.28;1.88;;;;;;;13.11;89.67;98876.41;5008565;28;20431;-69
2023/11/06 08:14:35;;;;;;;3.75;1.60;;;;;;;13.18;89.65;98880.94;5009471;28;20110;-69
2023/11/06 08:17:00;;;;;;;3.47;2.20;;;;;;;13.21;88.24;98885.50;4989657;28;20505;-69
2023/11/06 08:19:26;;;;;;;2.80;1.65;;;;;;;13.12;88.60;98904.22;4993396;28;20022;-68
2023/11/06 08:21:51;;;;;;;2.97;2.03;;;;;;;13.10;89.54;98896.53;5001083;28;20458;-69
2023/11/06 08:24:17;;;;;;;5.95;1.88;;;;;;;13.26;88.68;98893.13;5005562;28;20505;-69
2023/11/06 08:26:44;;;;;;;6.43;1.85;;;;;;;13.30;88.30;98901.94;4996012;28;20446;-69
2023/11/06 08:29:10;;;;;;;2.95;1.83;;;;;;;13.20;88.34;98905.63;5011131;28;20034;-68
2023/11/06 08:31:35;;;;;;;4.22;2.17;;;;;;;13.00;89.97;98908.25;5010270;28;20042;-69
2023/11/06 08:34:01;;;;;;;7.63;2.08;;;;;;;13.13;89.80;98921.94;5009408;28;20104;-69
2023/11/06 08:36:26;;;;;;;5.00;1.60;;;;;;;13.23;88.79;98918.28;4990685;28;20040;-69
2023/11/06 08:38:52;;;;;;;4.25;1.95;;;;;;;13.03;89.75;98920.97;5003463;28;20104;-69
2023/11/06 08:41:17;;;;;;;2.60;1.77;;;;;;;13.27;89.27;98937.91;5010439;28;20083;-69
2023/11/06 08:43:43;;;;;;;7.07;2.10;;;;;;;13.30;88.70;98927.03;4994483;28;20032;-69
2023/11/06 08:46:08;;;;;;;7.20;1.77;;;;;;;13.17;89.01;98941.56;5004471;28;20037;-68
2023/11/06 08:48:34;;;;;;;4.25;1.88;;;;;;;13.33;88.58;98938.97;5006606;28;20442;-69
2023/11/06 08:50:59;;;;;;;4.72;2.25;;;;;;;13.22;88.50;98949.22;5009728;28;20042;-69
2023/11/06 08:53:25;;;;;;;1.58;1.25;;;;;;;13.28;88.84;98947.53;5017864;28;20037;-69
2023/11/06 08:55:50;;;;;;;2.55;1.48;;;;;;;13.20;89.82;98946.91;5012042;28;20053;-69
2023/11/06 08:58:16;;;;;;;1.67;1.20;;;;;;;13.37;89.25;98945.06;4997746;28;20037;-68
2023/11/06 09:00:47;;;;;;;2.78;1.75;;;;;;;13.42;88.84;98947.28;5012714;28;20181;-69
2023/11/06 09:03:15;;;;;;;2.45;1.45;;;;;;;13.52;88.92;98946.31;4993605;28;20034;-69
2023/11/06 09:05:42;;;;;;;2.70;1.45;;;;;;;13.50;89.08;98959.50;5006918;28;20033;-69
2023/11/06 09:08:08;;;;;;;4.93;1.95;;;;;;;13.34;89.71;98965.56;5009417;28;20030;-69
2023/11/06 09:10:34;;;;;;;2.05;1.30;;;;;;;13.36;89.43;98967.84;5008929;28;20088;-69
2023/11/06 09:13:00;;;;;;;2.95;1.67;;;;;;;13.48;89.85;98964.56;5012157;28;20570;-69
2023/11/06 09:15:26;;;;;;;2.03;1.60;;;;;;;13.51;89.30;98963.75;4991112;28;20047;-69
2023/11/06 09:17:53;;;;;;;4.25;1.92;;;;;;;13.57;89.11;98978.28;5006041;28;20042;-69
2023/11/06 09:20:19;;;;;;;6.13;1.55;;;;;;;13.66;88.54;98975.81;5013951;28;20580;-69
2023/11/06 09:22:46;;;;;;;3.00;1.65;;;;;;;13.44;89.37;98982.78;5009671;28;20073;-69
2023/11/06 09:25:12;;;;;;;2.92;1.42;;;;;;;13.56;89.19;98987.59;5011446;28;20432;-69
2023/11/06 09:27:38;;;;;;;6.38;1.67;;;;;;;13.61;88.50;98995.19;5011676;28;20105;-69
2023/11/06 09:30:04;;;;;;;2.90;1.55;;;;;;;13.44;88.78;98996.31;5013276;28;20120;-69
2023/11/06 09:32:30;;;;;;;2.53;1.38;;;;;;;13.59;88.40;98997.56;5013996;28;20618;-68
2023/11/06 09:34:55;;;;;;;3.25;1.55;;;;;;;13.69;87.59;99012.81;4994996;28;20101;-69
2023/11/06 09:37:22;;;;;;;2.22;1.48;;;;;;;13.70;87.78;99014.38;5011834;28;20045;-69
2023/11/06 09:39:47;;;;;;;3.00;1.73;;;;;;;13.78;87.59;99015.00;5011380;28;20352;-69
2023/11/06 09:42:13;;;;;;;3.13;1.20;;;;;;;13.70;87.62;99021.72;4998639;28;20037;-68
2023/11/06 09:44:38;;;;;;;3.85;1.75;;;;;;;13.72;86.87;99030.97;4991574;28;20445;-68
2023/11/06 09:47:07;;;;;;;2.65;1.50;;;;;;;13.77;86.21;99029.69;4994778;28;20048;-69
2023/11/06 09:50:01;;;;;;;2.25;1.58;;;;;;;13.86;85.61;99035.34;4984631;28;20038;-68
2023/11/06 09:52:27;;;;;;;2.30;1.50;;;;;;;13.87;85.81;99040.31;5009911;28;20037;-68
2023/11/06 09:54:54;;;;;;;4.65;1.38;;;;;;;13.91;86.12;99046.44;4972346;28;20040;-68
2023/11/06 09:57:20;;;;;;;4.68;1.58;;;;;;;13.98;85.83;99040.88;5010737;28;20034;-69
2023/11/06 09:59:47;;;;;;;1.95;1.30;;;;;;;13.99;85.55;99053.25;5011893;28;20064;-69
2023/11/06 10:02:12;;;;;;;9.30;1.83;;;;;;;14.01;85.02;99050.09;5011994;28;20034;-68
2023/11/06 10:04:38;;;;;;;4.60;1.95;;;;;;;13.78;86.10;99059.03;4988570;28;20113;-69
2023/11/06 10:07:04;;;;;;;2.42;1.33;;;;;;;13.83;85.61;99055.09;4994322;28;20042;-68
2023/11/06 10:09:30;;;;;;;2.47;1.40;;;;;;;13.89;85.17;99056.13;5011775;28;20121;-68
2023/11/06 10:12:16;;;;;;;3.63;1.67;;;;;;;13.95;84.80;99059.88;5008440;28;20042;-68
2023/11/06 10:14:42;;;;;;;3.70;1.40;;;;;;;13.93;84.83;99063.03;5002659;28;20029;-68
2023/11/06 10:17:07;;;;;;;2.53;2.25;;;;;;;13.91;85.31;99062.66;4995484;28;20193;-69
2023/11/06 10:19:34;;;;;;;2.30;1.30;;;;;;;13.95;84.67;99063.38;5007513;28;20390;-68
2023/11/06 10:22:14;;;;;;;5.78;1.17;;;;;;;14.01;84.57;99071.75;4993377;28;20490;-69
2023/11/06 10:24:48;;;;;;;2.55;1.23;;;;;;;14.01;85.26;99067.13;5008868;28;20038;-68
2023/11/06 10:27:29;;;;;;;1.40;1.08;;;;;;;14.12;83.83;99067.66;5010023;28;20092;-68
2023/11/06 10:29:59;;;;;;;1.38;1.00;;;;;;;13.96;85.07;99074.94;4991769;28;20065;-68
2023/11/06 10:32:27;;;;;;;4.18;1.40;;;;;;;14.17;83.76;99075.28;5009941;28;20038;-68
2023/11/06 10:34:55;;;;;;;5.65;1.50;;;;;;;14.17;82.80;99069.09;4993215;28;20462;-67
2023/11/06 10:37:27;;;;;;;2.75;1.55;;;;;;;14.06;83.73;99068.56;4992186;28;20152;-67
2023/11/06 10:39:56;;;;;;;3.35;1.40;;;;;;;14.06;83.67;99077.44;4977224;28;20522;-67
2023/11/06 10:42:23;;;;;;;1.30;1.00;;;;;;;14.15;82.74;99077.66;4986120;28;20037;-67
2023/11/06 10:44:58;;;;;;;2.58;1.10;;;;;;;14.18;82.15;99076.06;4992115;28;20124;-68
2023/11/06 10:47:32;;;;;;;1.60;1.10;;;;;;;14.18;82.29;99087.66;5007375;28;20037;-67
2023/11/06 10:50:03;;;;;;;2.00;1.20;;;;;;;14.15;82.57;99082.31;5007122;28;20141;-68
2023/11/06 10:52:32;;;;;;;3.38;1.30;;;;;;;14.14;82.95;99086.97;4986150;28;20562;-67
2023/11/06 10:54:59;;;;;;;7.45;1.35;;;;;;;14.23;82.74;99086.38;4991826;28;20034;-68
2023/11/06 10:57:28;;;;;;;1.88;1.48;;;;;;;14.33;82.45;99102.47;5005549;28;20117;-67
2023/11/06 10:59:54;;;;;;;2.00;1.02;;;;;;;14.28;82.16;99094.06;5009312;28;20026;-67
2023/11/06 11:02:44;;;;;;;3.28;0.93;;;;;;;14.18;82.13;99092.31;4977220;28;20144;-68
2023/11/06 11:05:12;;;;;;;1.45;0.77;;;;;;;14.10;82.53;99097.09;5006612;28;20073;-68
2023/11/06 11:07:42;;;;;;;1.10;0.80;;;;;;;14.09;82.60;99103.69;4990005;28;20061;-68
2023/11/06 11:10:14;;;;;;;0.82;0.70;;;;;;;14.22;81.76;99098.41;5007584;28;20186;-67
2023/11/06 11:12:40;;;;;;;0.90;0.90;;;;;;;14.17;81.26;99109.72;5010260;28;20037;-67
2023/11/06 11:15:12;;;;;;;1.45;0.90;;;;;;;14.15;81.21;99101.28;4992085;28;20053;-68
2023/11/06 11:17:38;;;;;;;7.22;1.13;;;;;;;14.24;81.02;99098.75;4987758;28;20060;-67
2023/11/06 11:20:07;;;;;;;1.73;1.00;;;;;;;14.31;80.67;99102.13;4985071;28;20553;-68
2023/11/06 11:22:53;;;;;;;1.45;0.85;;;;;;;14.42;80.07;99118.13;5009637;28;20041;-68
2023/11/06 11:25:54;;;;;;;0.55;0.55;;;;;;;14.33;80.13;99110.59;5007028;28;20030;-68
2023/11/06 11:28:20;;;;;;;4.32;0.90;;;;;;;14.42;78.67;99118.13;5006879;28;20022;-68
2023/11/06 11:30:47;;;;;;;1.15;0.80;;;;;;;14.59;78.97;99121.69;4991516;28;20040;-68